Terminal Aerodrome Forecast
Issued by NWS Cleveland, OH

Home | Current Version | Previous Version | Graphics & Text | Print | Product List | Glossary On
Versions: 1 2 3 4 5 6 7 8 9 10 11 12 13 14 15 16 17 18 19 20 21 22 23 24 25 26 27 28 29 30
728
FTUS41 KCLE 170145 AAA
TAFCLE
TAF AMD
KCLE 170145Z 1702/1806 31010KT P6SM OVC030
      TEMPO 1702/1706 OVC035
     FM170700 VRB05KT P6SM OVC025
     FM171200 20007KT P6SM BKN025 OVC035
     FM171800 17010KT P6SM SCT035 BKN150=

USA.gov is the U.S. government's official web portal to all federal, state and local government web resources and services.